sensor_id;sensor_type;location;lat;lon;timestamp;pressure;altitude;pressure_sealevel;temperature;humidity
75740;BME280;64357;51.344;6.550;2023-08-20T00:01:35;101578.88;;;19.41;100.00
75740;BME280;64357;51.344;6.550;2023-08-20T00:04:01;101576.41;;;19.55;100.00
75740;BME280;64357;51.344;6.550;2023-08-20T00:06:27;101573.38;;;19.49;100.00
75740;BME280;64357;51.344;6.550;2023-08-20T00:08:55;101574.34;;;19.39;100.00
75740;BME280;64357;51.344;6.550;2023-08-20T00:11:20;101572.13;;;19.43;100.00
75740;BME280;64357;51.344;6.550;2023-08-20T00:13:46;101582.38;;;19.42;100.00
75740;BME280;64357;51.344;6.550;2023-08-20T00:16:11;101579.75;;;19.30;100.00
75740;BME280;64357;51.344;6.550;2023-08-20T00:18:38;101580.56;;;19.29;100.00
75740;BME280;64357;51.344;6.550;2023-08-20T00:21:03;101574.56;;;19.30;100.00
75740;BME280;64357;51.344;6.550;2023-08-20T00:23:29;101576.91;;;19.27;100.00
75740;BME280;64357;51.344;6.550;2023-08-20T00:25:55;101569.41;;;19.30;100.00
75740;BME280;64357;51.344;6.550;2023-08-20T00:28:20;101569.97;;;19.38;100.00
75740;BME280;64357;51.344;6.550;2023-08-20T00:30:46;101566.22;;;19.34;100.00
75740;BME280;64357;51.344;6.550;2023-08-20T00:33:12;101565.13;;;19.31;100.00
75740;BME280;64357;51.344;6.550;2023-08-20T00:35:37;101549.00;;;19.23;100.00
75740;BME280;64357;51.344;6.550;2023-08-20T00:38:05;101548.41;;;19.15;100.00
75740;BME280;64357;51.344;6.550;2023-08-20T00:40:31;101571.06;;;19.18;100.00
75740;BME280;64357;51.344;6.550;2023-08-20T00:43:01;101573.19;;;19.12;100.00
75740;BME280;64357;51.344;6.550;2023-08-20T00:45:26;101574.38;;;19.05;100.00
75740;BME280;64357;51.344;6.550;2023-08-20T00:47:59;101580.59;;;19.07;100.00
75740;BME280;64357;51.344;6.550;2023-08-20T00:50:25;101581.56;;;18.98;100.00
75740;BME280;64357;51.344;6.550;2023-08-20T00:52:52;101575.41;;;18.85;100.00
75740;BME280;64357;51.344;6.550;2023-08-20T00:55:18;101577.84;;;18.94;100.00
75740;BME280;64357;51.344;6.550;2023-08-20T00:57:43;101581.38;;;18.84;100.00
75740;BME280;64357;51.344;6.550;2023-08-20T01:00:10;101581.28;;;18.83;100.00
75740;BME280;64357;51.344;6.550;2023-08-20T01:02:38;101577.84;;;18.94;100.00
75740;BME280;64357;51.344;6.550;2023-08-20T01:05:05;101580.72;;;18.87;100.00
75740;BME280;64357;51.344;6.550;2023-08-20T01:08:35;101588.94;;;18.93;100.00
75740;BME280;64357;51.344;6.550;2023-08-20T01:10:47;101578.59;;;18.93;100.00
75740;BME280;64357;51.344;6.550;2023-08-20T01:13:17;101579.16;;;18.89;100.00
75740;BME280;64357;51.344;6.550;2023-08-20T01:15:43;101581.34;;;18.73;100.00
75740;BME280;64357;51.344;6.550;2023-08-20T01:18:08;101594.16;;;18.71;100.00
75740;BME280;64357;51.344;6.550;2023-08-20T01:20:41;101589.53;;;18.67;100.00
75740;BME280;64357;51.344;6.550;2023-08-20T01:28:53;101593.75;;;18.77;100.00
75740;BME280;64357;51.344;6.550;2023-08-20T01:31:21;101595.28;;;18.75;100.00
75740;BME280;64357;51.344;6.550;2023-08-20T01:33:48;101586.19;;;18.80;100.00
75740;BME280;64357;51.344;6.550;2023-08-20T01:36:14;101593.25;;;18.71;100.00
75740;BME280;64357;51.344;6.550;2023-08-20T01:38:39;101597.66;;;18.72;100.00
75740;BME280;64357;51.344;6.550;2023-08-20T01:41:04;101598.69;;;18.63;100.00
75740;BME280;64357;51.344;6.550;2023-08-20T01:43:30;101594.06;;;18.59;100.00
75740;BME280;64357;51.344;6.550;2023-08-20T01:45:55;101600.78;;;18.68;100.00
75740;BME280;64357;51.344;6.550;2023-08-20T01:48:21;101600.59;;;18.76;100.00
75740;BME280;64357;51.344;6.550;2023-08-20T01:50:46;101603.91;;;18.85;100.00
75740;BME280;64357;51.344;6.550;2023-08-20T01:53:12;101610.88;;;18.86;100.00
75740;BME280;64357;51.344;6.550;2023-08-20T01:55:37;101619.31;;;18.84;100.00
75740;BME280;64357;51.344;6.550;2023-08-20T01:58:03;101615.56;;;18.80;100.00
75740;BME280;64357;51.344;6.550;2023-08-20T02:00:28;101612.97;;;18.80;100.00
75740;BME280;64357;51.344;6.550;2023-08-20T02:02:55;101616.66;;;18.72;100.00
75740;BME280;64357;51.344;6.550;2023-08-20T02:05:21;101620.28;;;18.74;100.00
75740;BME280;64357;51.344;6.550;2023-08-20T02:07:46;101624.69;;;18.65;100.00
75740;BME280;64357;51.344;6.550;2023-08-20T02:10:16;101632.56;;;18.77;100.00
75740;BME280;64357;51.344;6.550;2023-08-20T02:12:41;101634.66;;;18.92;100.00
75740;BME280;64357;51.344;6.550;2023-08-20T02:15:08;101647.69;;;18.82;100.00
75740;BME280;64357;51.344;6.550;2023-08-20T02:17:36;101651.88;;;18.92;100.00
75740;BME280;64357;51.344;6.550;2023-08-20T02:20:02;101650.63;;;18.87;100.00
75740;BME280;64357;51.344;6.550;2023-08-20T02:22:29;101654.72;;;18.95;100.00
75740;BME280;64357;51.344;6.550;2023-08-20T02:24:55;101652.94;;;18.94;100.00
75740;BME280;64357;51.344;6.550;2023-08-20T02:27:20;101649.59;;;18.85;100.00
75740;BME280;64357;51.344;6.550;2023-08-20T02:29:45;101642.50;;;18.82;100.00
75740;BME280;64357;51.344;6.550;2023-08-20T02:32:13;101643.47;;;18.73;100.00
75740;BME280;64357;51.344;6.550;2023-08-20T02:34:38;101646.31;;;18.65;100.00
75740;BME280;64357;51.344;6.550;2023-08-20T02:37:04;101643.88;;;18.57;100.00
75740;BME280;64357;51.344;6.550;2023-08-20T02:39:29;101647.72;;;18.62;100.00
75740;BME280;64357;51.344;6.550;2023-08-20T02:41:56;101645.03;;;18.71;100.00
75740;BME280;64357;51.344;6.550;2023-08-20T02:44:22;101642.03;;;18.66;100.00
75740;BME280;64357;51.344;6.550;2023-08-20T02:46:47;101635.72;;;18.52;100.00
75740;BME280;64357;51.344;6.550;2023-08-20T02:49:14;101644.13;;;18.60;100.00
75740;BME280;64357;51.344;6.550;2023-08-20T02:51:40;101647.91;;;18.53;100.00
75740;BME280;64357;51.344;6.550;2023-08-20T02:54:07;101661.25;;;18.48;100.00
75740;BME280;64357;51.344;6.550;2023-08-20T02:56:33;101653.63;;;18.49;100.00
75740;BME280;64357;51.344;6.550;2023-08-20T02:58:58;101654.81;;;18.43;100.00
75740;BME280;64357;51.344;6.550;2023-08-20T03:01:28;101662.19;;;18.38;100.00
75740;BME280;64357;51.344;6.550;2023-08-20T03:03:55;101661.53;;;18.41;100.00
75740;BME280;64357;51.344;6.550;2023-08-20T03:06:22;101668.56;;;18.31;100.00
75740;BME280;64357;51.344;6.550;2023-08-20T03:08:48;101671.53;;;18.26;100.00
75740;BME280;64357;51.344;6.550;2023-08-20T03:11:18;101675.69;;;18.24;100.00
75740;BME280;64357;51.344;6.550;2023-08-20T03:13:44;101667.94;;;18.24;100.00
75740;BME280;64357;51.344;6.550;2023-08-20T03:16:10;101673.50;;;18.18;100.00
75740;BME280;64357;51.344;6.550;2023-08-20T03:18:35;101674.75;;;18.23;100.00
75740;BME280;64357;51.344;6.550;2023-08-20T03:21:00;101659.91;;;18.21;100.00
75740;BME280;64357;51.344;6.550;2023-08-20T03:23:27;101662.38;;;18.19;100.00
75740;BME280;64357;51.344;6.550;2023-08-20T03:25:52;101670.94;;;18.18;100.00
75740;BME280;64357;51.344;6.550;2023-08-20T03:28:18;101667.78;;;18.32;100.00
75740;BME280;64357;51.344;6.550;2023-08-20T03:30:44;101662.72;;;18.34;100.00
75740;BME280;64357;51.344;6.550;2023-08-20T03:33:09;101664.09;;;18.41;100.00
75740;BME280;64357;51.344;6.550;2023-08-20T03:35:35;101661.69;;;18.32;100.00
75740;BME280;64357;51.344;6.550;2023-08-20T03:38:00;101670.94;;;18.50;100.00
75740;BME280;64357;51.344;6.550;2023-08-20T03:40:27;101673.22;;;18.57;100.00
75740;BME280;64357;51.344;6.550;2023-08-20T03:42:53;101670.72;;;18.47;100.00
75740;BME280;64357;51.344;6.550;2023-08-20T03:45:18;101664.50;;;18.45;100.00
75740;BME280;64357;51.344;6.550;2023-08-20T03:47:46;101664.38;;;18.44;100.00
75740;BME280;64357;51.344;6.550;2023-08-20T03:50:12;101673.44;;;18.38;100.00
75740;BME280;64357;51.344;6.550;2023-08-20T03:52:37;101668.53;;;18.42;100.00
75740;BME280;64357;51.344;6.550;2023-08-20T03:55:05;101672.41;;;18.36;100.00
75740;BME280;64357;51.344;6.550;2023-08-20T03:57:30;101655.50;;;18.30;100.00
75740;BME280;64357;51.344;6.550;2023-08-20T03:59:55;101661.44;;;18.29;100.00
75740;BME280;64357;51.344;6.550;2023-08-20T04:02:23;101654.22;;;18.25;100.00
75740;BME280;64357;51.344;6.550;2023-08-20T04:04:49;101659.44;;;18.04;100.00
75740;BME280;64357;51.344;6.550;2023-08-20T04:07:14;101658.13;;;18.09;100.00
75740;BME280;64357;51.344;6.550;2023-08-20T04:09:42;101661.72;;;18.11;100.00
75740;BME280;64357;51.344;6.550;2023-08-20T04:12:10;101668.06;;;18.15;100.00
75740;BME280;64357;51.344;6.550;2023-08-20T04:14:37;101666.41;;;18.05;100.00
75740;BME280;64357;51.344;6.550;2023-08-20T04:17:03;101667.44;;;18.18;100.00
75740;BME280;64357;51.344;6.550;2023-08-20T04:19:28;101678.69;;;18.08;100.00
75740;BME280;64357;51.344;6.550;2023-08-20T04:21:53;101681.16;;;18.06;100.00
75740;BME280;64357;51.344;6.550;2023-08-20T04:24:19;101681.00;;;18.15;100.00
75740;BME280;64357;51.344;6.550;2023-08-20T04:26:46;101685.44;;;18.06;100.00
75740;BME280;64357;51.344;6.550;2023-08-20T04:29:12;101677.63;;;18.16;100.00
75740;BME280;64357;51.344;6.550;2023-08-20T04:31:37;101686.84;;;18.13;100.00
75740;BME280;64357;51.344;6.550;2023-08-20T04:34:05;101687.06;;;18.16;100.00
75740;BME280;64357;51.344;6.550;2023-08-20T04:36:30;101696.41;;;18.14;100.00
75740;BME280;64357;51.344;6.550;2023-08-20T04:38:55;101673.25;;;18.05;100.00
75740;BME280;64357;51.344;6.550;2023-08-20T04:41:21;101674.69;;;18.01;100.00
75740;BME280;64357;51.344;6.550;2023-08-20T04:43:49;101684.13;;;18.01;100.00
75740;BME280;64357;51.344;6.550;2023-08-20T04:46:16;101682.19;;;17.98;100.00
75740;BME280;64357;51.344;6.550;2023-08-20T04:48:43;101688.03;;;17.96;100.00
75740;BME280;64357;51.344;6.550;2023-08-20T04:51:08;101673.66;;;17.99;100.00
75740;BME280;64357;51.344;6.550;2023-08-20T04:53:34;101677.78;;;18.07;100.00
75740;BME280;64357;51.344;6.550;2023-08-20T04:56:02;101673.25;;;18.05;100.00
75740;BME280;64357;51.344;6.550;2023-08-20T04:58:28;101668.63;;;18.01;100.00
75740;BME280;64357;51.344;6.550;2023-08-20T05:00:56;101667.56;;;17.99;100.00
75740;BME280;64357;51.344;6.550;2023-08-20T05:03:21;101675.72;;;18.03;100.00
75740;BME280;64357;51.344;6.550;2023-08-20T05:05:50;101681.78;;;18.04;100.00
75740;BME280;64357;51.344;6.550;2023-08-20T05:08:16;101689.44;;;18.02;100.00
75740;BME280;64357;51.344;6.550;2023-08-20T05:10:41;101682.47;;;17.91;100.00
75740;BME280;64357;51.344;6.550;2023-08-20T05:13:08;101696.00;;;18.09;100.00
75740;BME280;64357;51.344;6.550;2023-08-20T05:15:33;101687.47;;;18.10;100.00
75740;BME280;64357;51.344;6.550;2023-08-20T05:18:00;101697.31;;;18.14;100.00
75740;BME280;64357;51.344;6.550;2023-08-20T05:20:28;101694.59;;;18.13;100.00
75740;BME280;64357;51.344;6.550;2023-08-20T05:22:53;101698.22;;;18.04;100.00
75740;BME280;64357;51.344;6.550;2023-08-20T05:25:19;101687.75;;;18.03;100.00
75740;BME280;64357;51.344;6.550;2023-08-20T05:27:47;101702.09;;;18.09;100.00
75740;BME280;64357;51.344;6.550;2023-08-20T05:30:13;101694.81;;;18.26;100.00
75740;BME280;64357;51.344;6.550;2023-08-20T05:32:38;101706.44;;;18.41;100.00
75740;BME280;64357;51.344;6.550;2023-08-20T05:35:05;101709.16;;;18.32;100.00
75740;BME280;64357;51.344;6.550;2023-08-20T05:37:31;101708.59;;;18.47;100.00
75740;BME280;64357;51.344;6.550;2023-08-20T05:39:56;101709.13;;;18.43;100.00
75740;BME280;64357;51.344;6.550;2023-08-20T05:42:24;101703.78;;;18.51;100.00
75740;BME280;64357;51.344;6.550;2023-08-20T05:44:49;101710.88;;;18.64;100.00
75740;BME280;64357;51.344;6.550;2023-08-20T05:47:15;101704.66;;;18.72;100.00
75740;BME280;64357;51.344;6.550;2023-08-20T05:49:40;101712.81;;;18.77;100.00
75740;BME280;64357;51.344;6.550;2023-08-20T05:52:08;101719.78;;;18.78;100.00
75740;BME280;64357;51.344;6.550;2023-08-20T05:54:43;101715.34;;;18.87;100.00
75740;BME280;64357;51.344;6.550;2023-08-20T05:57:11;101711.22;;;18.89;100.00
75740;BME280;64357;51.344;6.550;2023-08-20T05:59:36;101717.66;;;18.94;100.00
75740;BME280;64357;51.344;6.550;2023-08-20T06:02:02;101726.16;;;19.03;100.00
75740;BME280;64357;51.344;6.550;2023-08-20T06:04:30;101715.38;;;19.09;100.00
75740;BME280;64357;51.344;6.550;2023-08-20T06:06:57;101718.22;;;19.12;100.00
75740;BME280;64357;51.344;6.550;2023-08-20T06:09:23;101720.50;;;19.19;100.00
75740;BME280;64357;51.344;6.550;2023-08-20T06:11:48;101712.72;;;19.19;100.00
75740;BME280;64357;51.344;6.550;2023-08-20T06:14:16;101709.94;;;19.28;100.00
75740;BME280;64357;51.344;6.550;2023-08-20T06:16:44;101717.91;;;19.41;100.00
75740;BME280;64357;51.344;6.550;2023-08-20T06:19:09;101718.66;;;19.40;100.00
75740;BME280;64357;51.344;6.550;2023-08-20T06:21:34;101720.28;;;19.60;100.00
75740;BME280;64357;51.344;6.550;2023-08-20T06:24:02;101723.34;;;19.66;100.00
75740;BME280;64357;51.344;6.550;2023-08-20T06:26:32;101726.50;;;19.74;100.00
75740;BME280;64357;51.344;6.550;2023-08-20T06:28:59;101730.59;;;19.82;100.00
75740;BME280;64357;51.344;6.550;2023-08-20T06:31:25;101723.06;;;19.96;100.00
75740;BME280;64357;51.344;6.550;2023-08-20T06:33:50;101722.84;;;19.93;100.00
75740;BME280;64357;51.344;6.550;2023-08-20T06:36:16;101725.66;;;19.96;100.00
75740;BME280;64357;51.344;6.550;2023-08-20T06:38:43;101727.56;;;19.99;100.00
75740;BME280;64357;51.344;6.550;2023-08-20T06:41:09;101725.50;;;20.17;100.00
75740;BME280;64357;51.344;6.550;2023-08-20T06:43:34;101734.66;;;20.35;100.00
75740;BME280;64357;51.344;6.550;2023-08-20T06:46:01;101729.44;;;20.35;100.00
75740;BME280;64357;51.344;6.550;2023-08-20T06:48:29;101730.50;;;20.49;100.00
75740;BME280;64357;51.344;6.550;2023-08-20T06:50:55;101731.19;;;20.58;100.00
75740;BME280;64357;51.344;6.550;2023-08-20T06:53:20;101726.00;;;20.58;100.00
75740;BME280;64357;51.344;6.550;2023-08-20T06:55:45;101734.53;;;20.69;100.00
75740;BME280;64357;51.344;6.550;2023-08-20T06:58:11;101731.72;;;20.77;100.00
75740;BME280;64357;51.344;6.550;2023-08-20T07:00:40;101730.34;;;20.94;100.00
75740;BME280;64357;51.344;6.550;2023-08-20T07:03:06;101733.41;;;20.89;100.00
75740;BME280;64357;51.344;6.550;2023-08-20T07:05:31;101725.38;;;20.86;100.00
75740;BME280;64357;51.344;6.550;2023-08-20T07:07:59;101724.25;;;20.94;100.00
75740;BME280;64357;51.344;6.550;2023-08-20T07:10:25;101719.25;;;20.97;100.00
75740;BME280;64357;51.344;6.550;2023-08-20T07:12:53;101721.44;;;21.27;100.00
75740;BME280;64357;51.344;6.550;2023-08-20T07:15:20;101729.69;;;21.22;100.00
75740;BME280;64357;51.344;6.550;2023-08-20T07:17:48;101720.00;;;21.31;100.00
75740;BME280;64357;51.344;6.550;2023-08-20T07:20:16;101731.06;;;21.40;100.00
75740;BME280;64357;51.344;6.550;2023-08-20T07:22:41;101727.03;;;21.45;100.00
75740;BME280;64357;51.344;6.550;2023-08-20T07:25:08;101732.84;;;21.66;100.00
75740;BME280;64357;51.344;6.550;2023-08-20T07:27:33;101727.53;;;21.90;100.00
75740;BME280;64357;51.344;6.550;2023-08-20T07:29:58;101723.69;;;22.09;100.00
75740;BME280;64357;51.344;6.550;2023-08-20T07:32:28;101732.78;;;22.16;100.00
75740;BME280;64357;51.344;6.550;2023-08-20T07:34:53;101738.13;;;22.31;100.00
75740;BME280;64357;51.344;6.550;2023-08-20T07:37:19;101737.22;;;22.17;100.00
75740;BME280;64357;51.344;6.550;2023-08-20T07:39:44;101742.72;;;22.22;100.00
75740;BME280;64357;51.344;6.550;2023-08-20T07:42:13;101749.34;;;22.43;100.00
75740;BME280;64357;51.344;6.550;2023-08-20T07:44:43;101732.34;;;22.48;100.00
75740;BME280;64357;51.344;6.550;2023-08-20T07:47:10;101734.53;;;22.55;100.00
75740;BME280;64357;51.344;6.550;2023-08-20T07:49:36;101744.25;;;22.84;100.00
75740;BME280;64357;51.344;6.550;2023-08-20T07:52:01;101735.94;;;22.77;100.00
75740;BME280;64357;51.344;6.550;2023-08-20T07:54:27;101730.00;;;22.79;100.00
75740;BME280;64357;51.344;6.550;2023-08-20T07:56:56;101732.63;;;23.06;100.00
75740;BME280;64357;51.344;6.550;2023-08-20T07:59:21;101732.66;;;22.93;100.00
75740;BME280;64357;51.344;6.550;2023-08-20T08:01:51;101726.13;;;22.99;100.00
75740;BME280;64357;51.344;6.550;2023-08-20T08:04:19;101725.84;;;22.95;100.00
75740;BME280;64357;51.344;6.550;2023-08-20T08:06:44;101732.59;;;23.19;100.00
75740;BME280;64357;51.344;6.550;2023-08-20T08:09:29;101732.38;;;23.29;100.00
75740;BME280;64357;51.344;6.550;2023-08-20T08:11:58;101730.59;;;23.43;100.00
75740;BME280;64357;51.344;6.550;2023-08-20T08:14:24;101740.50;;;23.49;100.00
75740;BME280;64357;51.344;6.550;2023-08-20T08:16:49;101749.03;;;23.74;100.00
75740;BME280;64357;51.344;6.550;2023-08-20T08:19:17;101736.38;;;23.80;100.00
75740;BME280;64357;51.344;6.550;2023-08-20T08:21:45;101748.75;;;24.12;100.00
75740;BME280;64357;51.344;6.550;2023-08-20T08:24:13;101740.19;;;24.30;100.00
75740;BME280;64357;51.344;6.550;2023-08-20T08:26:39;101739.97;;;25.17;97.58
75740;BME280;64357;51.344;6.550;2023-08-20T08:29:06;101747.19;;;25.53;95.65
75740;BME280;64357;51.344;6.550;2023-08-20T08:31:32;101741.16;;;25.07;96.82
75740;BME280;64357;51.344;6.550;2023-08-20T08:33:58;101747.44;;;25.58;93.63
75740;BME280;64357;51.344;6.550;2023-08-20T08:36:25;101745.31;;;26.52;87.54
75740;BME280;64357;51.344;6.550;2023-08-20T08:38:52;101742.44;;;27.01;84.13
75740;BME280;64357;51.344;6.550;2023-08-20T08:41:21;101747.72;;;27.77;78.76
75740;BME280;64357;51.344;6.550;2023-08-20T08:43:50;101747.25;;;28.69;74.26
75740;BME280;64357;51.344;6.550;2023-08-20T08:46:15;101747.03;;;28.63;73.45
75740;BME280;64357;51.344;6.550;2023-08-20T08:48:48;101763.44;;;27.57;77.20
75740;BME280;64357;51.344;6.550;2023-08-20T08:51:16;101758.06;;;27.93;76.37
75740;BME280;64357;51.344;6.550;2023-08-20T08:53:42;101762.06;;;26.91;81.83
75740;BME280;64357;51.344;6.550;2023-08-20T08:56:13;101748.81;;;26.00;86.58
75740;BME280;64357;51.344;6.550;2023-08-20T08:58:41;101748.97;;;25.71;89.64
75740;BME280;64357;51.344;6.550;2023-08-20T09:01:06;101753.22;;;26.01;88.29
75740;BME280;64357;51.344;6.550;2023-08-20T09:03:32;101757.28;;;27.37;82.12
75740;BME280;64357;51.344;6.550;2023-08-20T09:05:58;101755.66;;;27.40;80.50
75740;BME280;64357;51.344;6.550;2023-08-20T09:08:30;101763.06;;;26.57;82.94
75740;BME280;64357;51.344;6.550;2023-08-20T09:10:56;101757.09;;;25.75;86.94
75740;BME280;64357;51.344;6.550;2023-08-20T09:13:46;101763.59;;;26.50;83.79
75740;BME280;64357;51.344;6.550;2023-08-20T09:16:11;101775.44;;;27.70;77.19
75740;BME280;64357;51.344;6.550;2023-08-20T09:18:39;101765.69;;;28.91;71.35
75740;BME280;64357;51.344;6.550;2023-08-20T09:21:09;101768.22;;;29.80;66.18
75740;BME280;64357;51.344;6.550;2023-08-20T09:23:36;101770.03;;;28.27;70.53
75740;BME280;64357;51.344;6.550;2023-08-20T09:26:02;101773.75;;;29.63;65.22
75740;BME280;64357;51.344;6.550;2023-08-20T09:28:41;101774.25;;;28.86;69.90
75740;BME280;64357;51.344;6.550;2023-08-20T09:31:06;101769.53;;;27.95;73.30
75740;BME280;64357;51.344;6.550;2023-08-20T09:33:35;101767.25;;;26.72;77.63
75740;BME280;64357;51.344;6.550;2023-08-20T09:36:03;101760.81;;;26.47;79.97
75740;BME280;64357;51.344;6.550;2023-08-20T09:38:36;101767.00;;;26.85;78.94
75740;BME280;64357;51.344;6.550;2023-08-20T09:41:05;101768.84;;;28.39;71.51
75740;BME280;64357;51.344;6.550;2023-08-20T09:43:37;101766.28;;;29.52;65.85
75740;BME280;64357;51.344;6.550;2023-08-20T09:46:03;101768.41;;;29.15;65.83
75740;BME280;64357;51.344;6.550;2023-08-20T09:48:33;101773.03;;;29.21;64.83
75740;BME280;64357;51.344;6.550;2023-08-20T09:50:59;101769.03;;;28.44;68.22
75740;BME280;64357;51.344;6.550;2023-08-20T09:53:35;101769.81;;;28.22;68.27
75740;BME280;64357;51.344;6.550;2023-08-20T09:56:09;101776.69;;;29.48;63.23
75740;BME280;64357;51.344;6.550;2023-08-20T09:58:37;101768.75;;;29.95;61.03
75740;BME280;64357;51.344;6.550;2023-08-20T10:01:06;101781.22;;;31.04;55.80
75740;BME280;64357;51.344;6.550;2023-08-20T10:03:32;101785.81;;;30.83;56.75
75740;BME280;64357;51.344;6.550;2023-08-20T10:05:58;101788.16;;;32.22;52.30
75740;BME280;64357;51.344;6.550;2023-08-20T10:08:26;101790.03;;;29.31;60.55
75740;BME280;64357;51.344;6.550;2023-08-20T10:10:52;101783.88;;;29.08;62.52
75740;BME280;64357;51.344;6.550;2023-08-20T10:13:18;101778.41;;;30.98;56.76
75740;BME280;64357;51.344;6.550;2023-08-20T10:15:44;101780.84;;;31.20;56.54
75740;BME280;64357;51.344;6.550;2023-08-20T10:18:12;101775.91;;;31.02;56.63
75740;BME280;64357;51.344;6.550;2023-08-20T10:20:39;101775.59;;;28.97;64.38
75740;BME280;64357;51.344;6.550;2023-08-20T10:23:06;101770.38;;;29.91;61.33
75740;BME280;64357;51.344;6.550;2023-08-20T10:25:41;101774.22;;;31.06;57.61
75740;BME280;64357;51.344;6.550;2023-08-20T10:28:13;101763.50;;;29.25;63.96
75740;BME280;64357;51.344;6.550;2023-08-20T10:33:55;101766.66;;;29.85;61.28
75740;BME280;64357;51.344;6.550;2023-08-20T10:36:22;101770.59;;;30.48;59.45
75740;BME280;64357;51.344;6.550;2023-08-20T10:38:51;101780.69;;;31.16;56.70
75740;BME280;64357;51.344;6.550;2023-08-20T10:41:25;101772.66;;;30.57;56.14
75740;BME280;64357;51.344;6.550;2023-08-20T10:43:50;101776.03;;;31.07;55.35
75740;BME280;64357;51.344;6.550;2023-08-20T10:46:21;101775.53;;;30.65;56.36
75740;BME280;64357;51.344;6.550;2023-08-20T10:48:54;101782.28;;;31.38;54.99
75740;BME280;64357;51.344;6.550;2023-08-20T10:51:37;101781.94;;;31.57;54.21
75740;BME280;64357;51.344;6.550;2023-08-20T10:54:05;101777.84;;;31.67;53.65
75740;BME280;64357;51.344;6.550;2023-08-20T10:56:48;101773.69;;;31.76;52.80
75740;BME280;64357;51.344;6.550;2023-08-20T10:59:20;101774.00;;;31.25;55.16
75740;BME280;64357;51.344;6.550;2023-08-20T11:01:58;101775.09;;;31.34;54.33
75740;BME280;64357;51.344;6.550;2023-08-20T11:04:31;101777.78;;;31.65;54.02
75740;BME280;64357;51.344;6.550;2023-08-20T11:06:58;101770.47;;;29.46;60.70
75740;BME280;64357;51.344;6.550;2023-08-20T11:09:29;101779.66;;;28.90;62.16
75740;BME280;64357;51.344;6.550;2023-08-20T11:11:55;101774.81;;;28.79;60.00
75740;BME280;64357;51.344;6.550;2023-08-20T11:14:24;101776.00;;;29.53;56.93
75740;BME280;64357;51.344;6.550;2023-08-20T11:16:50;101774.75;;;30.40;55.55
75740;BME280;64357;51.344;6.550;2023-08-20T11:19:22;101775.66;;;29.91;57.01
75740;BME280;64357;51.344;6.550;2023-08-20T11:21:48;101780.50;;;30.05;56.20
75740;BME280;64357;51.344;6.550;2023-08-20T11:24:14;101772.97;;;30.93;54.44
75740;BME280;64357;51.344;6.550;2023-08-20T11:26:40;101776.53;;;30.41;54.66
75740;BME280;64357;51.344;6.550;2023-08-20T11:29:16;101784.41;;;30.67;52.18
75740;BME280;64357;51.344;6.550;2023-08-20T11:31:45;101769.63;;;30.45;53.17
75740;BME280;64357;51.344;6.550;2023-08-20T11:34:13;101766.47;;;29.56;56.03
75740;BME280;64357;51.344;6.550;2023-08-20T11:36:41;101774.38;;;30.06;54.12
75740;BME280;64357;51.344;6.550;2023-08-20T11:39:07;101777.66;;;29.51;55.12
75740;BME280;64357;51.344;6.550;2023-08-20T11:41:36;101770.09;;;29.60;55.49
75740;BME280;64357;51.344;6.550;2023-08-20T11:44:02;101769.91;;;30.54;53.82
75740;BME280;64357;51.344;6.550;2023-08-20T11:46:34;101766.38;;;31.36;51.21
75740;BME280;64357;51.344;6.550;2023-08-20T11:49:08;101761.44;;;31.48;50.86
75740;BME280;64357;51.344;6.550;2023-08-20T11:54:17;101766.25;;;30.23;57.14
75740;BME280;64357;51.344;6.550;2023-08-20T11:56:47;101762.78;;;30.00;57.82
75740;BME280;64357;51.344;6.550;2023-08-20T11:59:13;101757.84;;;29.60;59.60
75740;BME280;64357;51.344;6.550;2023-08-20T12:01:39;101756.91;;;29.84;57.52
75740;BME280;64357;51.344;6.550;2023-08-20T12:04:08;101756.09;;;30.61;56.33
75740;BME280;64357;51.344;6.550;2023-08-20T12:06:35;101763.50;;;29.48;58.25
75740;BME280;64357;51.344;6.550;2023-08-20T12:09:07;101751.28;;;30.22;56.92
75740;BME280;64357;51.344;6.550;2023-08-20T12:11:51;101751.66;;;30.33;55.82
75740;BME280;64357;51.344;6.550;2023-08-20T12:14:18;101757.78;;;30.32;55.44
75740;BME280;64357;51.344;6.550;2023-08-20T12:16:43;101750.66;;;29.80;57.34
75740;BME280;64357;51.344;6.550;2023-08-20T12:19:09;101749.03;;;29.84;58.08
75740;BME280;64357;51.344;6.550;2023-08-20T12:21:39;101751.56;;;30.06;56.23
75740;BME280;64357;51.344;6.550;2023-08-20T12:24:05;101743.63;;;29.55;58.48
75740;BME280;64357;51.344;6.550;2023-08-20T12:26:33;101746.13;;;30.52;55.36
75740;BME280;64357;51.344;6.550;2023-08-20T12:29:02;101744.59;;;29.83;56.60
75740;BME280;64357;51.344;6.550;2023-08-20T12:31:30;101744.31;;;29.51;56.82
75740;BME280;64357;51.344;6.550;2023-08-20T12:34:01;101743.75;;;29.84;56.23
75740;BME280;64357;51.344;6.550;2023-08-20T12:36:27;101742.28;;;30.16;54.47
75740;BME280;64357;51.344;6.550;2023-08-20T12:38:54;101737.38;;;30.53;52.25
75740;BME280;64357;51.344;6.550;2023-08-20T12:41:19;101741.03;;;29.57;55.14
75740;BME280;64357;51.344;6.550;2023-08-20T12:43:45;101743.94;;;28.73;58.36
75740;BME280;64357;51.344;6.550;2023-08-20T12:46:13;101735.28;;;27.73;59.33
75740;BME280;64357;51.344;6.550;2023-08-20T12:48:41;101745.88;;;27.95;59.31
75740;BME280;64357;51.344;6.550;2023-08-20T12:51:07;101731.00;;;28.57;57.81
75740;BME280;64357;51.344;6.550;2023-08-20T12:53:35;101727.59;;;28.17;57.51
75740;BME280;64357;51.344;6.550;2023-08-20T12:56:01;101729.25;;;28.15;57.20